Time;durP1;ratioP1;P1;durP2;ratioP2;P2;SDS_P1;SDS_P2;PMS_P1;PMS_P2;Temp;Humidity;BMP_temperature;BMP_pressure;BME280_temperature;BME280_humidity;BME280_pressure;Samples;Min_cycle;Max_cycle;Signal;HPM_P1;HPM_P2
2022/05/11 00:00:46;;;;;;;5.07;3.30;;;16.20;98.00;;;;;;5012590;28;21011;-67
2022/05/11 00:03:13;;;;;;;2.73;2.13;;;16.30;98.00;;;;;;5012956;28;20455;-67
2022/05/11 00:05:41;;;;;;;3.57;2.37;;;16.20;98.00;;;;;;5012840;28;20451;-66
2022/05/11 00:08:08;;;;;;;2.80;2.27;;;16.30;98.00;;;;;;5011132;28;20487;-67
2022/05/11 00:10:36;;;;;;;2.67;2.07;;;16.30;98.00;;;;;;5012271;28;20455;-67
2022/05/11 00:13:04;;;;;;;12.03;3.27;;;16.20;98.00;;;;;;5012631;28;20459;-67
2022/05/11 00:15:33;;;;;;;5.00;3.13;;;16.10;98.00;;;;;;5012409;28;20466;-66
2022/05/11 00:18:01;;;;;;;10.40;2.93;;;16.10;98.00;;;;;;5011818;28;20452;-67
2022/05/11 00:20:29;;;;;;;3.43;2.17;;;16.10;98.00;;;;;;5012199;28;20510;-67
2022/05/11 00:22:57;;;;;;;3.37;2.30;;;16.20;98.00;;;;;;5012387;28;20467;-67
2022/05/11 00:25:26;;;;;;;4.93;3.00;;;16.10;98.00;;;;;;5012246;28;20463;-67
2022/05/11 00:27:53;;;;;;;5.20;2.67;;;16.00;98.00;;;;;;5012319;28;20470;-67
2022/05/11 00:30:21;;;;;;;2.50;2.30;;;16.10;98.00;;;;;;5012117;28;20871;-67
2022/05/11 00:32:56;;;;;;;3.37;2.50;;;16.10;98.00;;;;;;5012148;28;20455;-67
2022/05/11 00:35:24;;;;;;;4.60;3.00;;;15.90;98.00;;;;;;5011913;28;20460;-67
2022/05/11 00:37:51;;;;;;;3.57;2.40;;;15.80;98.00;;;;;;5011169;28;20455;-67
2022/05/11 00:40:20;;;;;;;5.20;3.07;;;15.70;98.00;;;;;;5012174;28;20467;-67
2022/05/11 00:42:47;;;;;;;4.20;2.90;;;15.60;98.00;;;;;;5012402;28;20483;-67
2022/05/11 00:45:15;;;;;;;3.17;2.20;;;15.60;98.00;;;;;;5012404;28;20455;-67
2022/05/11 00:47:45;;;;;;;6.17;3.00;;;15.40;98.00;;;;;;5012194;28;20509;-67
2022/05/11 00:50:17;;;;;;;4.67;3.10;;;15.40;98.00;;;;;;5012277;28;20478;-67
2022/05/11 00:52:47;;;;;;;5.30;2.90;;;15.40;98.00;;;;;;5011879;28;20459;-67
2022/05/11 00:55:18;;;;;;;4.50;2.90;;;15.50;98.00;;;;;;5012304;28;20451;-67
2022/05/11 00:57:57;;;;;;;3.40;2.27;;;15.40;98.00;;;;;;5012343;28;20513;-67
2022/05/11 01:00:25;;;;;;;3.10;2.40;;;15.50;98.00;;;;;;5012142;28;20509;-67
2022/05/11 01:02:57;;;;;;;6.40;3.10;;;15.50;98.00;;;;;;5011987;28;20487;-67
2022/05/11 01:05:25;;;;;;;5.87;3.67;;;15.60;98.00;;;;;;5011848;28;20462;-67
2022/05/11 01:07:56;;;;;;;2.67;2.07;;;15.60;98.00;;;;;;5011884;28;20452;-67
2022/05/11 01:10:24;;;;;;;3.73;2.20;;;15.50;98.00;;;;;;5011671;28;20463;-67
2022/05/11 01:12:54;;;;;;;3.80;2.87;;;15.20;98.00;;;;;;5012158;28;20470;-67
2022/05/11 01:15:21;;;;;;;3.27;2.10;;;15.20;98.00;;;;;;5011912;28;20461;-67
2022/05/11 01:17:55;;;;;;;2.77;2.00;;;15.00;98.00;;;;;;5011755;28;20954;-67
2022/05/11 01:20:26;;;;;;;4.27;2.67;;;15.00;98.00;;;;;;5012122;28;20490;-67
2022/05/11 01:23:03;;;;;;;2.70;2.07;;;15.00;98.00;;;;;;5011721;28;21017;-67
2022/05/11 01:25:32;;;;;;;4.97;2.83;;;15.00;98.00;;;;;;5011852;28;20462;-66
2022/05/11 01:28:02;;;;;;;2.60;1.77;;;14.90;98.00;;;;;;5011710;28;20545;-67
2022/05/11 01:30:30;;;;;;;3.10;2.33;;;14.80;98.00;;;;;;5011618;28;20868;-67
2022/05/11 01:32:57;;;;;;;4.23;2.57;;;14.90;98.00;;;;;;5011715;28;20934;-67
2022/05/11 01:35:56;;;;;;;6.03;2.70;;;15.00;98.00;;;;;;5011548;28;20466;-66
2022/05/11 01:38:31;;;;;;;4.57;2.40;;;14.90;98.00;;;;;;4978425;28;20471;-67
2022/05/11 01:41:02;;;;;;;3.63;2.70;;;15.00;98.00;;;;;;5011621;28;20507;-67
2022/05/11 01:43:32;;;;;;;3.73;2.53;;;15.00;98.00;;;;;;5011534;28;20553;-67
2022/05/11 01:45:59;;;;;;;2.97;2.00;;;14.90;98.00;;;;;;5010301;28;20460;-66
2022/05/11 01:48:27;;;;;;;4.70;3.67;;;14.80;98.00;;;;;;5015062;28;20498;-67
2022/05/11 01:50:55;;;;;;;3.47;2.30;;;14.80;98.00;;;;;;5015165;28;20502;-67
2022/05/11 01:53:23;;;;;;;4.43;2.40;;;14.70;98.00;;;;;;5015314;28;20455;-66
2022/05/11 01:55:50;;;;;;;4.80;3.00;;;14.70;98.00;;;;;;5014290;28;20583;-67
2022/05/11 01:58:22;;;;;;;2.83;2.63;;;14.70;98.00;;;;;;5015165;28;20477;-67
2022/05/11 02:00:49;;;;;;;3.63;2.47;;;14.80;98.00;;;;;;5015198;28;20467;-67
2022/05/11 02:03:18;;;;;;;2.37;2.13;;;14.90;98.00;;;;;;5014940;28;20497;-66
2022/05/11 02:08:32;;;;;;;4.97;2.43;;;14.80;98.00;;;;;;5014453;28;20439;-66
2022/05/11 02:11:00;;;;;;;6.53;2.83;;;14.70;98.00;;;;;;5014472;28;20967;-66
2022/05/11 02:13:29;;;;;;;3.50;2.77;;;14.50;98.00;;;;;;5014740;28;20469;-66
2022/05/11 02:15:57;;;;;;;4.67;2.40;;;14.50;98.00;;;;;;5014629;28;20498;-66
2022/05/11 02:18:24;;;;;;;3.00;2.47;;;14.60;98.00;;;;;;5014659;28;20804;-66
2022/05/11 02:20:51;;;;;;;3.10;2.40;;;14.60;98.00;;;;;;5014493;28;20507;-66
2022/05/11 02:23:21;;;;;;;2.70;2.27;;;14.60;98.00;;;;;;5014369;28;20491;-66
2022/05/11 02:25:50;;;;;;;3.00;2.37;;;14.70;98.00;;;;;;5014565;28;20828;-66
2022/05/11 02:28:21;;;;;;;4.37;2.47;;;14.50;98.00;;;;;;5014331;28;20981;-66
2022/05/11 02:30:51;;;;;;;3.10;2.00;;;14.50;98.00;;;;;;5014554;28;20483;-67
2022/05/11 02:33:19;;;;;;;2.63;1.93;;;14.40;98.00;;;;;;5014360;28;20466;-66
2022/05/11 02:35:46;;;;;;;5.10;2.70;;;14.40;98.00;;;;;;5014223;28;20662;-66
2022/05/11 02:38:15;;;;;;;3.53;2.53;;;14.50;98.00;;;;;;5014311;28;20550;-66
2022/05/11 02:40:43;;;;;;;3.83;2.67;;;14.30;98.00;;;;;;5014258;28;20471;-66
2022/05/11 02:43:11;;;;;;;2.47;1.73;;;14.20;98.00;;;;;;5014186;28;20502;-67
2022/05/11 02:45:40;;;;;;;4.70;2.33;;;14.30;98.00;;;;;;5014013;28;21030;-66
2022/05/11 02:48:11;;;;;;;2.90;2.47;;;14.30;98.00;;;;;;5014135;28;20515;-66
2022/05/11 02:50:42;;;;;;;4.77;2.20;;;14.40;98.00;;;;;;5013894;28;20455;-66
2022/05/11 02:53:11;;;;;;;4.10;2.87;;;14.50;98.00;;;;;;5014113;28;20478;-66
2022/05/11 02:55:40;;;;;;;2.80;2.20;;;14.50;98.00;;;;;;5013972;28;20458;-66
2022/05/11 02:58:07;;;;;;;4.37;2.83;;;14.30;98.00;;;;;;5013852;28;21048;-66
2022/05/11 03:00:36;;;;;;;3.23;2.83;;;14.30;98.00;;;;;;5013897;28;20467;-66
2022/05/11 03:03:04;;;;;;;5.63;2.73;;;14.20;98.00;;;;;;5013479;28;20497;-66
2022/05/11 03:05:34;;;;;;;2.23;1.93;;;14.20;98.00;;;;;;5013632;28;21048;-66
2022/05/11 03:08:01;;;;;;;3.20;2.33;;;14.10;98.00;;;;;;5013368;28;20461;-66
2022/05/11 03:10:36;;;;;;;4.30;2.50;;;13.90;98.00;;;;;;5013432;28;20470;-66
2022/05/11 03:13:04;;;;;;;2.07;1.73;;;13.80;98.00;;;;;;5013457;28;20465;-66
2022/05/11 03:15:31;;;;;;;3.37;2.10;;;13.90;98.00;;;;;;5013403;28;20462;-66
2022/05/11 03:18:00;;;;;;;3.63;2.23;;;14.00;98.00;;;;;;5013492;28;20454;-66
2022/05/11 03:20:27;;;;;;;3.10;2.23;;;14.10;98.00;;;;;;5013695;28;20834;-66
2022/05/11 03:22:56;;;;;;;2.97;2.20;;;14.00;98.00;;;;;;5013432;28;20489;-66
2022/05/11 03:25:26;;;;;;;2.80;2.30;;;14.00;98.00;;;;;;5013192;28;20877;-66
2022/05/11 03:27:54;;;;;;;2.50;2.37;;;14.00;98.00;;;;;;5013182;28;20467;-66
2022/05/11 03:30:22;;;;;;;2.57;2.33;;;13.90;98.00;;;;;;5013293;28;20462;-66
2022/05/11 03:35:35;;;;;;;1.77;1.70;;;13.80;98.00;;;;;;5013410;28;20522;-66
2022/05/11 03:38:04;;;;;;;3.40;2.50;;;14.00;98.00;;;;;;5013220;28;20466;-66
2022/05/11 03:40:32;;;;;;;2.10;1.60;;;14.00;98.00;;;;;;5013195;28;20493;-66
2022/05/11 03:42:59;;;;;;;3.00;2.57;;;14.10;98.00;;;;;;5013059;28;20821;-66
2022/05/11 03:45:27;;;;;;;4.20;2.60;;;14.10;98.00;;;;;;5013122;28;20474;-66
2022/05/11 03:47:54;;;;;;;3.43;2.50;;;14.00;98.00;;;;;;5013003;28;20462;-66
2022/05/11 03:50:25;;;;;;;3.30;2.30;;;14.00;98.00;;;;;;5013124;28;20465;-66
2022/05/11 03:52:53;;;;;;;5.27;2.63;;;14.00;98.00;;;;;;5012917;28;20458;-66
2022/05/11 03:55:23;;;;;;;3.10;2.20;;;14.00;98.00;;;;;;5013050;28;20454;-66
2022/05/11 03:57:50;;;;;;;2.77;2.03;;;14.10;98.00;;;;;;5012676;28;20464;-66
2022/05/11 04:00:22;;;;;;;3.00;2.00;;;14.20;98.00;;;;;;5012903;28;20831;-66
2022/05/11 04:02:50;;;;;;;1.77;1.70;;;14.00;98.00;;;;;;5011304;28;20898;-66
2022/05/11 04:05:19;;;;;;;2.27;2.10;;;13.90;98.00;;;;;;5012708;28;20466;-66
2022/05/11 04:07:46;;;;;;;2.70;2.10;;;14.00;98.00;;;;;;5011314;28;20469;-66
2022/05/11 04:10:16;;;;;;;2.97;2.20;;;14.00;98.00;;;;;;5012352;28;20452;-66
2022/05/11 04:12:44;;;;;;;3.00;2.10;;;14.00;98.00;;;;;;5012534;28;20451;-66
2022/05/11 04:15:12;;;;;;;4.30;2.30;;;14.00;98.00;;;;;;5011211;28;20472;-66
2022/05/11 04:17:40;;;;;;;2.40;2.23;;;14.00;98.00;;;;;;5011322;28;20458;-66
2022/05/11 04:20:09;;;;;;;2.20;1.70;;;13.90;98.00;;;;;;5011100;28;20459;-66
2022/05/11 04:22:36;;;;;;;2.40;2.20;;;13.90;98.00;;;;;;5011003;28;20488;-66
2022/05/11 04:25:05;;;;;;;3.27;2.40;;;13.80;98.00;;;;;;5011347;28;20507;-66
2022/05/11 04:27:34;;;;;;;2.67;2.10;;;13.70;98.00;;;;;;5012311;28;20463;-66
2022/05/11 04:30:05;;;;;;;3.20;2.30;;;13.80;98.00;;;;;;5012649;28;20875;-66
2022/05/11 04:32:32;;;;;;;1.83;1.73;;;13.90;98.00;;;;;;5012246;28;20453;-66
2022/05/11 04:34:59;;;;;;;2.93;2.30;;;13.90;98.00;;;;;;5012402;28;20458;-66
2022/05/11 04:37:26;;;;;;;3.87;2.53;;;13.90;98.00;;;;;;5012281;28;20466;-66
2022/05/11 04:39:56;;;;;;;2.97;2.40;;;14.00;98.00;;;;;;5012418;28;20474;-66
2022/05/11 04:42:23;;;;;;;3.03;2.00;;;14.00;98.00;;;;;;5012614;28;20581;-66
2022/05/11 04:44:53;;;;;;;3.97;2.17;;;13.90;98.00;;;;;;5012294;28;20469;-66
2022/05/11 04:47:22;;;;;;;3.43;2.23;;;13.80;98.00;;;;;;5012048;28;20539;-66
2022/05/11 04:49:52;;;;;;;2.43;1.80;;;13.70;98.00;;;;;;5012441;28;20871;-66
2022/05/11 04:52:19;;;;;;;3.30;2.50;;;13.80;98.00;;;;;;5012324;28;20455;-66
2022/05/11 04:54:49;;;;;;;3.80;2.30;;;13.80;98.00;;;;;;5012513;28;20473;-66
2022/05/11 04:57:17;;;;;;;3.63;2.13;;;13.80;98.00;;;;;;5012245;28;20462;-66
2022/05/11 04:59:45;;;;;;;2.37;2.00;;;14.00;98.00;;;;;;5012245;28;20470;-66
2022/05/11 05:02:17;;;;;;;3.93;2.27;;;13.90;98.00;;;;;;5011715;28;20483;-66
2022/05/11 05:04:46;;;;;;;4.03;2.73;;;14.00;98.00;;;;;;5012331;28;20883;-66
2022/05/11 05:07:13;;;;;;;2.60;2.10;;;14.10;98.00;;;;;;5011804;28;20513;-66
2022/05/11 05:09:41;;;;;;;3.30;2.50;;;14.30;98.00;;;;;;5010564;28;20469;-66
2022/05/11 05:12:10;;;;;;;3.70;2.27;;;14.40;98.00;;;;;;5011722;28;20487;-66
2022/05/11 05:14:37;;;;;;;4.50;2.60;;;14.30;98.00;;;;;;5011891;28;20485;-66
2022/05/11 05:17:07;;;;;;;3.33;2.50;;;14.40;98.00;;;;;;5011611;28;20469;-66
2022/05/11 05:19:36;;;;;;;4.23;2.47;;;14.30;98.00;;;;;;5010562;28;20510;-66
2022/05/11 05:22:05;;;;;;;3.40;2.60;;;14.10;98.00;;;;;;5013134;28;20465;-66
2022/05/11 05:24:33;;;;;;;2.23;2.10;;;14.10;98.00;;;;;;5015532;28;20473;-66
2022/05/11 05:27:00;;;;;;;2.90;2.13;;;14.20;98.00;;;;;;5015374;28;20875;-66
2022/05/11 05:32:18;;;;;;;3.00;2.30;;;14.20;98.00;;;;;;5015643;28;20556;-66
2022/05/11 05:34:45;;;;;;;3.40;2.87;;;14.30;98.00;;;;;;5015469;28;20489;-66
2022/05/11 05:37:15;;;;;;;4.50;3.00;;;14.40;98.00;;;;;;5015345;28;20454;-66
2022/05/11 05:39:42;;;;;;;2.87;2.33;;;14.40;98.00;;;;;;5015590;28;20480;-66
2022/05/11 05:42:16;;;;;;;4.40;3.13;;;14.40;98.00;;;;;;5015227;28;20954;-66
2022/05/11 05:44:43;;;;;;;3.27;2.37;;;14.40;98.00;;;;;;5015467;28;20471;-66
2022/05/11 05:47:11;;;;;;;3.80;2.70;;;14.50;98.00;;;;;;5015229;28;20455;-66
2022/05/11 05:49:38;;;;;;;5.20;2.50;;;14.70;98.00;;;;;;5015503;28;20786;-63
2022/05/11 05:52:07;;;;;;;3.00;1.90;;;14.70;98.00;;;;;;5015322;28;20838;-63
2022/05/11 05:54:37;;;;;;;4.67;2.33;;;14.80;98.00;;;;;;5015442;28;20455;-63
2022/05/11 05:57:04;;;;;;;6.63;2.50;;;15.00;98.00;;;;;;5015120;28;20569;-63
2022/05/11 05:59:31;;;;;;;2.93;2.10;;;15.10;98.00;;;;;;5015012;28;20447;-63
2022/05/11 06:01:59;;;;;;;3.17;2.20;;;15.20;98.00;;;;;;5014555;28;20471;-63
2022/05/11 06:04:26;;;;;;;4.80;2.60;;;15.40;98.00;;;;;;5014902;28;20483;-63
2022/05/11 06:06:53;;;;;;;2.87;2.20;;;15.50;98.00;;;;;;5014813;28;20463;-63
2022/05/11 06:09:20;;;;;;;3.33;2.33;;;15.60;98.00;;;;;;5014574;28;20482;-63
2022/05/11 06:11:49;;;;;;;6.57;3.27;;;15.60;98.00;;;;;;5013189;28;20456;-63
2022/05/11 06:14:16;;;;;;;2.87;1.80;;;15.70;98.00;;;;;;5012888;28;20463;-63
2022/05/11 06:16:43;;;;;;;4.97;3.20;;;15.90;98.00;;;;;;5014569;28;20463;-63
2022/05/11 06:19:11;;;;;;;2.83;2.40;;;16.00;98.00;;;;;;5013290;28;20985;-63
2022/05/11 06:21:38;;;;;;;3.63;2.30;;;16.20;98.00;;;;;;5013202;28;20460;-63
2022/05/11 06:24:06;;;;;;;5.07;2.83;;;16.50;98.00;;;;;;5014545;28;20861;-63
2022/05/11 06:26:33;;;;;;;4.60;2.90;;;16.70;98.00;;;;;;5014420;28;20470;-63
2022/05/11 06:29:04;;;;;;;3.63;2.50;;;16.80;98.00;;;;;;5014330;28;20522;-63
2022/05/11 06:31:31;;;;;;;4.20;2.80;;;16.90;98.00;;;;;;5014261;28;20479;-63
2022/05/11 06:33:59;;;;;;;4.60;2.63;;;17.00;98.00;;;;;;5013917;28;20467;-63
2022/05/11 06:36:26;;;;;;;4.07;2.27;;;17.10;98.00;;;;;;5012994;28;20459;-63
2022/05/11 06:38:55;;;;;;;3.83;2.53;;;17.20;98.00;;;;;;5014282;28;20467;-63
2022/05/11 06:41:25;;;;;;;4.53;2.63;;;17.40;98.00;;;;;;5013999;28;20456;-63
2022/05/11 06:43:54;;;;;;;5.23;2.97;;;17.60;98.00;;;;;;5014160;28;20484;-63
2022/05/11 06:46:23;;;;;;;3.83;2.90;;;17.70;98.00;;;;;;5014164;28;20448;-63
2022/05/11 06:48:51;;;;;;;6.03;2.97;;;17.80;98.00;;;;;;5014265;28;20466;-63
2022/05/11 06:51:19;;;;;;;3.30;2.60;;;17.90;98.00;;;;;;5013987;28;20471;-63
2022/05/11 06:59:22;;;;;;;5.57;2.40;;;18.30;98.00;;;;;;5013887;28;20877;-63
2022/05/11 07:01:51;;;;;;;5.90;3.33;;;18.40;98.00;;;;;;5014183;28;20459;-63
2022/05/11 07:04:20;;;;;;;4.83;3.00;;;18.60;98.00;;;;;;5013685;28;20566;-63
2022/05/11 07:06:53;;;;;;;3.40;2.30;;;18.70;98.00;;;;;;5013910;28;20538;-65
2022/05/11 07:09:20;;;;;;;3.23;2.40;;;18.80;98.00;;;;;;5013455;28;20543;-64
2022/05/11 07:14:32;;;;;;;2.50;1.80;;;18.90;98.00;;;;;;5013594;28;20946;-65
2022/05/11 07:17:01;;;;;;;3.30;2.30;;;19.10;98.00;;;;;;5013285;28;21022;-67
2022/05/11 07:19:28;;;;;;;3.10;2.20;;;19.30;98.00;;;;;;5013517;28;20463;-67
2022/05/11 07:21:56;;;;;;;4.40;2.77;;;19.50;98.00;;;;;;5008772;28;20451;-65
2022/05/11 07:24:24;;;;;;;2.20;1.90;;;19.50;98.00;;;;;;5010842;28;20527;-64
2022/05/11 07:26:51;;;;;;;4.67;2.50;;;19.70;98.00;;;;;;5010746;28;20459;-65
2022/05/11 07:29:18;;;;;;;3.27;2.40;;;19.90;98.00;;;;;;5010222;28;20459;-65
2022/05/11 07:31:46;;;;;;;2.03;1.60;;;20.00;98.00;;;;;;5012162;28;20455;-65
2022/05/11 07:34:15;;;;;;;3.83;2.27;;;20.20;98.00;;;;;;5011973;28;20487;-64
2022/05/11 07:36:42;;;;;;;3.80;2.23;;;20.40;98.00;;;;;;5011993;28;20460;-65
2022/05/11 07:39:11;;;;;;;2.63;1.90;;;20.60;98.00;;;;;;5012819;28;20451;-65
2022/05/11 07:41:38;;;;;;;2.83;2.00;;;20.80;98.00;;;;;;5012744;28;20460;-65
2022/05/11 07:44:05;;;;;;;3.13;2.13;;;20.90;97.70;;;;;;5012156;28;20491;-64
2022/05/11 07:46:34;;;;;;;3.60;2.13;;;21.00;98.00;;;;;;5012966;28;20455;-65
2022/05/11 07:49:02;;;;;;;2.80;1.83;;;21.20;98.00;;;;;;5011838;28;20554;-66
2022/05/11 07:51:31;;;;;;;3.80;2.40;;;21.30;98.00;;;;;;5012934;28;21018;-64
2022/05/11 07:53:58;;;;;;;3.43;2.07;;;21.50;98.00;;;;;;5012764;28;20463;-65
2022/05/11 08:01:55;;;;;;;2.57;2.00;;;21.80;95.70;;;;;;5012419;28;20435;-66
2022/05/11 08:04:22;;;;;;;2.87;2.30;;;22.00;95.20;;;;;;5012447;28;20490;-65
2022/05/11 08:06:50;;;;;;;3.83;2.80;;;22.10;94.00;;;;;;5012534;28;20456;-66
2022/05/11 08:09:22;;;;;;;2.57;2.03;;;22.20;94.70;;;;;;5012890;28;20470;-66
2022/05/11 08:11:50;;;;;;;4.27;2.00;;;22.30;94.10;;;;;;5011286;28;21008;-65
2022/05/11 08:14:17;;;;;;;2.93;2.13;;;22.50;94.00;;;;;;5012571;28;20532;-65
2022/05/11 08:16:44;;;;;;;4.37;2.73;;;22.50;93.20;;;;;;5012260;28;20455;-64
2022/05/11 08:19:12;;;;;;;5.57;3.00;;;22.60;93.40;;;;;;5011741;28;20510;-64
2022/05/11 08:21:41;;;;;;;6.10;2.50;;;22.70;93.10;;;;;;5010310;28;20591;-65
2022/05/11 08:24:10;;;;;;;3.27;2.50;;;22.80;92.00;;;;;;5011354;28;21109;-63
2022/05/11 08:26:37;;;;;;;2.77;2.17;;;23.00;92.80;;;;;;5011570;28;20456;-65
2022/05/11 08:29:04;;;;;;;2.93;1.87;;;23.10;92.40;;;;;;5011830;28;20474;-65
2022/05/11 08:34:16;;;;;;;3.83;2.40;;;23.20;91.70;;;;;;5012311;28;20806;-66
2022/05/11 08:36:45;;;;;;;4.50;2.40;;;23.30;93.10;;;;;;5012542;28;20518;-66
2022/05/11 08:39:14;;;;;;;3.40;2.33;;;23.50;93.20;;;;;;5012104;28;20451;-64
2022/05/11 08:41:47;;;;;;;2.57;1.93;;;23.60;91.40;;;;;;5012136;28;20463;-67
2022/05/11 08:44:16;;;;;;;2.60;2.20;;;23.80;90.70;;;;;;5012126;28;20530;-66
2022/05/11 08:47:02;;;;;;;3.97;2.37;;;23.90;91.90;;;;;;5012124;28;20856;-65
2022/05/11 08:49:49;;;;;;;3.37;2.50;;;24.10;90.80;;;;;;5012173;28;21017;-64
2022/05/11 08:52:25;;;;;;;3.50;2.37;;;24.20;89.40;;;;;;5012143;28;20527;-65
2022/05/11 08:54:59;;;;;;;4.13;2.47;;;24.30;88.10;;;;;;5012316;28;20788;-65
2022/05/11 08:57:28;;;;;;;4.07;2.07;;;24.40;88.50;;;;;;5015649;28;20521;-64
2022/05/11 09:00:07;;;;;;;3.97;2.40;;;24.50;89.60;;;;;;5015724;28;21013;-65
2022/05/11 09:02:45;;;;;;;4.27;2.73;;;24.60;89.40;;;;;;5015567;28;20467;-64
2022/05/11 09:05:12;;;;;;;3.47;2.37;;;24.80;86.60;;;;;;5015895;28;20494;-64
2022/05/11 09:07:44;;;;;;;4.37;2.83;;;24.90;87.10;;;;;;5014292;28;20491;-65
2022/05/11 09:10:21;;;;;;;3.73;2.60;;;24.90;87.60;;;;;;5015137;28;20517;-65
2022/05/11 09:12:53;;;;;;;5.27;2.57;;;25.00;85.50;;;;;;5015724;28;20960;-65
2022/05/11 09:15:20;;;;;;;5.10;2.57;;;25.00;83.70;;;;;;5015743;28;20455;-65
2022/05/11 09:17:47;;;;;;;5.03;2.77;;;25.00;86.50;;;;;;5012849;28;20551;-65
2022/05/11 09:20:16;;;;;;;3.43;2.10;;;25.00;83.20;;;;;;5015542;28;20465;-66
2022/05/11 09:22:59;;;;;;;3.83;2.70;;;25.00;86.00;;;;;;5015613;28;20463;-65
2022/05/11 09:25:31;;;;;;;2.77;2.10;;;25.10;84.30;;;;;;5015401;28;20483;-65
2022/05/11 09:28:15;;;;;;;3.50;2.50;;;25.30;85.40;;;;;;5015436;28;20846;-65
2022/05/11 09:30:57;;;;;;;3.90;2.70;;;25.50;83.70;;;;;;5015572;28;20501;-64
2022/05/11 09:33:27;;;;;;;4.53;2.70;;;25.70;85.10;;;;;;5014540;28;20530;-66
2022/05/11 09:35:55;;;;;;;3.77;2.30;;;25.80;82.80;;;;;;5015180;28;20462;-64
2022/05/11 09:38:43;;;;;;;5.40;2.87;;;26.00;83.10;;;;;;5015005;28;20516;-65
2022/05/11 09:41:23;;;;;;;4.07;2.40;;;26.10;86.10;;;;;;5010512;28;20867;-65
2022/05/11 09:43:54;;;;;;;5.33;2.90;;;26.40;82.40;;;;;;5015151;28;20486;-64
2022/05/11 09:46:24;;;;;;;5.43;2.80;;;26.40;82.00;;;;;;5010966;28;20455;-65
2022/05/11 09:49:04;;;;;;;3.97;2.70;;;26.50;80.10;;;;;;5015221;28;20464;-66
2022/05/11 09:51:38;;;;;;;3.27;2.17;;;26.60;81.80;;;;;;5015031;28;20521;-65
2022/05/11 09:54:24;;;;;;;2.90;2.40;;;26.70;80.40;;;;;;5015301;28;20451;-65
2022/05/11 09:57:02;;;;;;;4.40;2.50;;;26.80;81.70;;;;;;5013878;28;21021;-66
2022/05/11 09:59:36;;;;;;;5.07;2.80;;;26.80;80.10;;;;;;5014811;28;20964;-66
2022/05/11 10:02:30;;;;;;;5.40;2.60;;;27.00;81.70;;;;;;5015485;28;20455;-65
2022/05/11 10:05:02;;;;;;;4.27;2.87;;;26.80;79.10;;;;;;5015248;28;20487;-66
2022/05/11 10:07:31;;;;;;;3.63;2.77;;;26.80;77.90;;;;;;5014100;28;20507;-66
2022/05/11 10:10:03;;;;;;;4.27;2.40;;;27.00;79.60;;;;;;5014916;28;20474;-65
2022/05/11 10:12:47;;;;;;;3.73;2.37;;;27.00;79.00;;;;;;5011064;28;20464;-65
2022/05/11 10:24:03;;;;;;;4.80;3.27;;;27.50;78.20;;;;;;5011537;28;20525;-66
2022/05/11 10:26:44;;;;;;;7.63;2.67;;;27.40;78.50;;;;;;5012058;28;20459;-65
2022/05/11 10:29:23;;;;;;;3.83;2.47;;;27.80;80.50;;;;;;5012186;28;20491;-65
2022/05/11 10:32:00;;;;;;;7.70;3.20;;;28.00;80.30;;;;;;5012042;28;20529;-67
2022/05/11 10:34:39;;;;;;;3.80;2.70;;;28.10;77.00;;;;;;5012042;28;21012;-66
2022/05/11 10:37:13;;;;;;;4.67;2.90;;;28.10;75.80;;;;;;5011442;28;20509;-64
2022/05/11 10:39:51;;;;;;;3.50;2.63;;;28.30;78.20;;;;;;5011617;28;20464;-65
2022/05/11 10:42:33;;;;;;;6.93;2.50;;;28.40;75.70;;;;;;5011620;28;20464;-66
2022/05/11 10:45:12;;;;;;;3.60;2.57;;;28.40;74.90;;;;;;5003008;28;20827;-65
2022/05/11 10:47:53;;;;;;;4.00;2.70;;;28.30;74.60;;;;;;5004651;28;20477;-65
2022/05/11 10:50:27;;;;;;;3.40;2.70;;;28.30;74.00;;;;;;5007727;28;20546;-66
2022/05/11 10:53:05;;;;;;;3.80;2.60;;;28.40;74.40;;;;;;5011367;28;20467;-66
2022/05/11 10:55:50;;;;;;;4.90;3.20;;;28.60;73.80;;;;;;5011432;28;20463;-65
2022/05/11 10:58:40;;;;;;;4.50;2.70;;;28.80;74.60;;;;;;5010876;28;20836;-65
2022/05/11 11:01:12;;;;;;;3.20;2.47;;;29.00;72.40;;;;;;5003125;28;20518;-65
2022/05/11 11:04:05;;;;;;;4.03;2.67;;;29.30;74.60;;;;;;5011278;28;20459;-66
2022/05/11 11:09:48;;;;;;;5.40;2.97;;;29.50;71.80;;;;;;5011254;28;21172;-66
2022/05/11 11:12:38;;;;;;;3.80;2.70;;;29.40;71.50;;;;;;5003293;28;20455;-66
2022/05/11 11:15:11;;;;;;;3.10;2.43;;;29.20;72.80;;;;;;5009686;28;20933;-66
2022/05/11 11:17:42;;;;;;;3.23;2.40;;;29.10;73.50;;;;;;5011053;28;20973;-65
2022/05/11 11:20:12;;;;;;;4.40;2.60;;;29.30;71.90;;;;;;5009469;28;20509;-66
2022/05/11 11:23:06;;;;;;;3.47;2.27;;;29.40;70.40;;;;;;5009697;28;20467;-66
2022/05/11 11:25:51;;;;;;;3.70;2.47;;;29.50;70.10;;;;;;5010750;28;20494;-65
2022/05/11 11:28:20;;;;;;;4.27;2.90;;;29.80;70.90;;;;;;5002969;28;20459;-66
2022/05/11 11:31:18;;;;;;;4.23;2.87;;;29.80;68.80;;;;;;5010442;28;20463;-65
2022/05/11 11:34:12;;;;;;;4.30;3.00;;;29.90;68.80;;;;;;5001857;28;20459;-65
2022/05/11 11:36:41;;;;;;;3.90;2.83;;;30.00;69.00;;;;;;4994003;28;20466;-64
2022/05/11 11:39:14;;;;;;;3.23;2.30;;;29.80;67.90;;;;;;5009178;28;20474;-66
2022/05/11 11:42:04;;;;;;;4.10;2.67;;;29.90;68.50;;;;;;4999621;28;20452;-65
2022/05/11 11:44:39;;;;;;;5.40;2.57;;;29.50;67.20;;;;;;5002043;28;20491;-66
2022/05/11 11:47:35;;;;;;;3.90;2.57;;;29.50;69.80;;;;;;5010041;28;21887;-65
2022/05/11 11:50:08;;;;;;;4.27;2.53;;;29.20;68.10;;;;;;4972991;28;20942;-65
2022/05/11 11:52:38;;;;;;;3.13;2.33;;;29.50;69.60;;;;;;5010214;28;20460;-64
2022/05/11 11:55:14;;;;;;;4.20;2.70;;;29.60;69.80;;;;;;5010243;28;20463;-65
2022/05/11 11:57:42;;;;;;;3.93;2.70;;;29.70;69.20;;;;;;5009703;28;20954;-65
2022/05/11 12:00:51;;;;;;;3.80;2.73;;;30.00;67.30;;;;;;5010262;28;20550;-65
2022/05/11 12:03:22;;;;;;;3.57;2.30;;;29.90;67.30;;;;;;5005702;28;20471;-65
2022/05/11 12:05:54;;;;;;;3.53;2.40;;;29.70;67.60;;;;;;5010157;28;20492;-66
2022/05/11 12:16:53;;;;;;;7.93;2.80;;;31.20;66.30;;;;;;5008855;28;20490;-66
2022/05/11 12:19:21;;;;;;;4.77;2.80;;;31.60;65.80;;;;;;5009716;28;20514;-65
2022/05/11 12:21:57;;;;;;;4.37;2.70;;;31.80;65.10;;;;;;5008427;28;20561;-64
2022/05/11 12:24:28;;;;;;;4.07;2.60;;;31.50;64.90;;;;;;5009677;28;21036;-65
2022/05/11 12:26:58;;;;;;;4.77;2.93;;;31.10;65.70;;;;;;5010180;28;20456;-65
2022/05/11 12:32:10;;;;;;;2.80;2.57;;;30.50;67.40;;;;;;5009162;28;20937;-66
2022/05/11 12:34:43;;;;;;;4.10;2.63;;;30.50;67.30;;;;;;5008322;28;20465;-65
2022/05/11 12:37:24;;;;;;;4.03;2.50;;;30.90;66.60;;;;;;5009501;28;20483;-66
2022/05/11 12:39:57;;;;;;;4.37;2.60;;;31.30;66.30;;;;;;5009274;28;20992;-65
2022/05/11 12:42:32;;;;;;;3.90;2.83;;;31.90;67.40;;;;;;5004770;28;20460;-66
2022/05/11 12:44:59;;;;;;;4.30;3.07;;;32.40;66.80;;;;;;5009506;28;20537;-65
2022/05/11 12:47:27;;;;;;;4.43;2.60;;;32.60;65.60;;;;;;5006874;28;20452;-66
2022/05/11 12:49:55;;;;;;;4.50;2.60;;;31.80;66.30;;;;;;5009117;28;20538;-66
2022/05/11 12:52:26;;;;;;;2.90;2.30;;;31.70;67.10;;;;;;5009328;28;20456;-66
2022/05/11 12:55:00;;;;;;;4.27;2.70;;;31.70;67.50;;;;;;5008935;28;21129;-66
2022/05/11 12:57:36;;;;;;;4.03;2.53;;;32.10;64.50;;;;;;5011885;28;20950;-66
2022/05/11 13:00:13;;;;;;;4.53;3.07;;;32.50;63.00;;;;;;5012172;28;20546;-66
2022/05/11 13:02:42;;;;;;;3.90;2.70;;;32.10;63.60;;;;;;5012183;28;20459;-66
2022/05/11 13:05:15;;;;;;;6.13;2.57;;;32.00;63.10;;;;;;5011830;28;20530;-66
2022/05/11 13:07:48;;;;;;;6.80;2.80;;;31.80;62.20;;;;;;5012222;28;20466;-66
2022/05/11 13:10:29;;;;;;;7.33;2.50;;;32.00;62.30;;;;;;5012109;28;20482;-65
2022/05/11 13:12:58;;;;;;;4.50;2.50;;;32.20;62.30;;;;;;5010967;28;20501;-66
2022/05/11 13:15:34;;;;;;;4.80;3.07;;;32.30;60.90;;;;;;5011679;28;20464;-65
2022/05/11 13:18:01;;;;;;;3.60;2.63;;;32.40;62.10;;;;;;5011353;28;20470;-65
2022/05/11 13:20:35;;;;;;;5.93;2.90;;;32.90;62.50;;;;;;5011631;28;20513;-65
2022/05/11 13:23:20;;;;;;;3.63;2.70;;;32.80;62.20;;;;;;5011623;28;20509;-65
2022/05/11 13:25:50;;;;;;;3.87;2.90;;;32.50;61.10;;;;;;5011457;28;20578;-65
2022/05/11 13:28:24;;;;;;;4.23;2.83;;;32.60;62.50;;;;;;5010297;28;20521;-65
2022/05/11 13:30:54;;;;;;;3.93;2.80;;;32.80;63.00;;;;;;5011277;28;20819;-66
2022/05/11 13:33:43;;;;;;;4.13;2.63;;;32.60;59.60;;;;;;5011479;28;21001;-64
2022/05/11 13:36:15;;;;;;;3.10;2.60;;;32.80;62.70;;;;;;5011708;28;20463;-65
2022/05/11 13:38:53;;;;;;;3.77;2.80;;;33.00;62.20;;;;;;5012027;28;20463;-65
2022/05/11 13:41:25;;;;;;;3.13;2.43;;;33.40;63.70;;;;;;5010424;28;20463;-65
2022/05/11 13:43:54;;;;;;;4.00;2.70;;;33.50;61.70;;;;;;5014180;28;20978;-67
2022/05/11 13:49:27;;;;;;;5.67;2.90;;;33.20;60.90;;;;;;5014684;28;20825;-65
2022/05/11 13:51:56;;;;;;;3.10;2.37;;;33.40;60.40;;;;;;5015264;28;20455;-64
2022/05/11 13:54:27;;;;;;;5.13;3.13;;;33.70;61.30;;;;;;5015065;28;20494;-64
2022/05/11 13:57:03;;;;;;;4.47;2.60;;;33.80;58.70;;;;;;5014929;28;20521;-65
2022/05/11 13:59:31;;;;;;;3.63;2.70;;;33.80;59.30;;;;;;5015239;28;20451;-64